Time;durP1;ratioP1;P1;durP2;ratioP2;P2;SDS_P1;SDS_P2;PMS_P1;PMS_P2;Temp;Humidity;BMP_temperature;BMP_pressure;BME280_temperature;BME280_humidity;BME280_pressure;Samples;Min_cycle;Max_cycle;Signal;HPM_P1;HPM_P2
2023/06/26 00:00:15;;;;;;;7.50;6.73;;;22.40;94.60;;;22.58;65.74;100822.41;5063952;28;20194;-76
2023/06/26 00:02:47;;;;;;;7.67;6.97;;;22.40;94.80;;;22.57;65.33;100821.56;5063315;28;20241;-75
2023/06/26 00:05:20;;;;;;;7.63;6.93;;;22.50;94.80;;;22.57;65.67;100818.84;5062811;28;20702;-76
2023/06/26 00:07:52;;;;;;;7.60;6.87;;;22.40;94.80;;;22.57;65.35;100818.00;5063181;28;20214;-77
2023/06/26 00:10:24;;;;;;;7.30;6.60;;;22.50;94.90;;;22.53;65.44;100823.13;5062854;28;20226;-76
2023/06/26 00:12:56;;;;;;;7.03;6.37;;;22.40;94.90;;;22.49;65.19;100824.69;5062931;28;20186;-76
2023/06/26 00:15:31;;;;;;;8.23;7.43;;;22.40;95.00;;;22.45;65.76;100818.03;5062544;28;20593;-76
2023/06/26 00:18:03;;;;;;;8.53;7.60;;;22.30;95.10;;;22.38;65.99;100820.03;5062873;28;20259;-76
2023/06/26 00:20:36;;;;;;;8.67;7.33;;;22.30;95.10;;;22.37;65.77;100812.91;5062327;28;20191;-76
2023/06/26 00:23:09;;;;;;;8.03;7.23;;;22.30;95.30;;;22.31;65.99;100813.84;5062691;28;20285;-76
2023/06/26 00:25:41;;;;;;;9.03;7.10;;;22.20;95.70;;;22.26;66.07;100815.63;5062673;28;20225;-76
2023/06/26 00:28:14;;;;;;;7.83;6.97;;;22.10;95.90;;;22.20;66.30;100811.94;5062734;28;20238;-76
2023/06/26 00:30:46;;;;;;;8.00;7.30;;;22.10;95.60;;;22.12;66.64;100806.84;5062323;28;20284;-76
2023/06/26 00:33:18;;;;;;;7.77;7.07;;;22.00;95.80;;;22.08;67.20;100808.38;5062778;28;20245;-76
2023/06/26 00:35:53;;;;;;;8.37;7.23;;;21.90;95.90;;;22.04;67.41;100818.06;5062881;28;20190;-76
2023/06/26 00:38:25;;;;;;;7.90;7.23;;;21.90;96.20;;;22.06;66.94;100813.19;5062528;28;20622;-76
2023/06/26 00:40:57;;;;;;;7.50;6.80;;;21.90;96.00;;;22.02;66.60;100809.31;5061903;28;20603;-76
2023/06/26 00:43:29;;;;;;;9.53;7.30;;;21.90;95.90;;;22.00;66.99;100816.88;5061615;28;20754;-77
2023/06/26 00:46:02;;;;;;;8.17;7.47;;;21.90;96.10;;;21.99;66.75;100809.75;5061902;28;20594;-76
2023/06/26 00:48:34;;;;;;;7.73;6.93;;;21.90;96.10;;;21.97;66.89;100809.16;5062542;28;20263;-76
2023/06/26 00:51:07;;;;;;;8.43;7.67;;;21.80;96.20;;;21.96;67.32;100812.94;5061949;28;20221;-77
2023/06/26 00:53:40;;;;;;;8.17;7.40;;;21.80;96.40;;;21.88;67.17;100796.91;5061715;28;20348;-77
2023/06/26 00:56:14;;;;;;;8.70;7.80;;;21.70;96.40;;;21.79;67.81;100796.38;5061365;28;20655;-77
2023/06/26 00:58:46;;;;;;;8.33;7.53;;;21.60;96.50;;;21.77;67.77;100800.41;5062384;28;20194;-76
2023/06/26 01:01:25;;;;;;;7.53;6.83;;;21.60;96.60;;;21.78;67.21;100791.19;5062024;28;20222;-76
2023/06/26 01:03:58;;;;;;;8.10;7.30;;;21.70;96.40;;;21.72;67.92;100793.75;5062362;28;20305;-76
2023/06/26 01:06:35;;;;;;;8.57;7.50;;;21.70;96.70;;;21.72;67.14;100788.31;5061984;28;20202;-77
2023/06/26 01:09:07;;;;;;;9.43;7.87;;;21.60;96.70;;;21.70;67.24;100787.72;5062168;28;20186;-76
2023/06/26 01:11:39;;;;;;;9.27;7.20;;;21.70;96.60;;;21.63;67.21;100780.72;5061988;28;20210;-76
2023/06/26 01:14:11;;;;;;;7.97;6.97;;;21.60;96.50;;;21.59;67.43;100783.06;5061725;28;20226;-76
2023/06/26 01:16:47;;;;;;;7.57;6.97;;;21.50;96.70;;;21.56;67.39;100778.06;5063292;28;20194;-77
2023/06/26 01:19:28;;;;;;;7.30;6.60;;;21.50;96.70;;;21.52;68.02;100776.88;5062392;28;20217;-76
2023/06/26 01:22:14;;;;;;;7.70;7.00;;;21.50;96.60;;;21.53;68.06;100773.09;5062973;28;20260;-77
2023/06/26 01:25:03;;;;;;;9.13;7.13;;;21.40;96.70;;;21.45;68.54;100773.41;5062502;28;20230;-77
2023/06/26 01:27:39;;;;;;;7.80;7.00;;;21.40;97.10;;;21.35;68.31;100769.56;5062375;28;20592;-77
2023/06/26 01:30:13;;;;;;;7.60;6.70;;;21.30;97.10;;;21.41;68.29;100765.91;5062834;28;20232;-77
2023/06/26 01:32:47;;;;;;;8.13;7.23;;;21.40;97.20;;;21.31;68.27;100758.31;5063192;28;20281;-76
2023/06/26 01:35:20;;;;;;;7.90;7.10;;;21.30;97.10;;;21.32;68.63;100765.41;5062563;28;20190;-76
2023/06/26 01:37:52;;;;;;;8.00;7.30;;;21.30;97.10;;;21.26;68.10;100755.44;5063378;28;20258;-76
2023/06/26 01:40:24;;;;;;;7.80;7.10;;;21.20;97.30;;;21.23;68.51;100755.91;5061329;28;20563;-77
2023/06/26 01:42:58;;;;;;;7.60;6.90;;;21.20;97.20;;;21.23;67.96;100754.00;5063121;28;20221;-76
2023/06/26 01:45:35;;;;;;;8.10;6.77;;;21.20;97.30;;;21.26;67.97;100744.56;5063876;28;20226;-77
2023/06/26 01:48:11;;;;;;;7.30;6.60;;;21.20;97.10;;;21.23;68.26;100755.91;5062681;28;20233;-77
2023/06/26 01:50:48;;;;;;;7.73;7.10;;;21.20;97.20;;;21.20;68.80;100750.91;5063232;28;20282;-76
2023/06/26 01:53:25;;;;;;;7.63;6.73;;;21.10;97.60;;;21.17;68.26;100749.47;5063549;28;20322;-76
2023/06/26 01:56:06;;;;;;;8.57;7.67;;;21.20;97.50;;;21.10;68.64;100745.16;5062473;28;20193;-76
2023/06/26 01:58:44;;;;;;;8.20;7.50;;;21.00;97.50;;;21.09;68.71;100741.59;5063907;28;20222;-76
2023/06/26 02:01:17;;;;;;;8.40;7.50;;;21.00;97.60;;;21.03;69.34;100738.94;5064260;28;20679;-76
2023/06/26 02:03:48;;;;;;;9.17;7.83;;;21.00;98.10;;;21.07;68.57;100737.44;5065178;28;20222;-77
2023/06/26 02:06:20;;;;;;;9.37;7.20;;;21.10;97.60;;;21.00;69.12;100733.97;5065428;28;20205;-77
2023/06/26 02:08:52;;;;;;;11.40;7.63;;;21.00;97.60;;;20.98;68.79;100730.66;5069507;28;20237;-77
2023/06/26 02:11:22;;;;;;;8.87;6.97;;;21.00;97.70;;;20.91;69.30;100730.72;5068882;28;20229;-77
2023/06/26 02:13:55;;;;;;;9.10;7.43;;;20.90;97.80;;;20.89;69.81;100732.03;5070482;28;20226;-76
2023/06/26 02:16:27;;;;;;;8.50;7.60;;;20.90;98.00;;;20.78;69.74;100724.63;5071292;28;20190;-76
2023/06/26 02:18:59;;;;;;;9.17;7.50;;;20.80;98.30;;;20.75;69.62;100717.75;5072481;28;20255;-76
2023/06/26 02:21:31;;;;;;;8.83;7.73;;;20.70;98.10;;;20.69;69.78;100716.75;5070934;28;20191;-76
2023/06/26 02:24:03;;;;;;;8.83;7.93;;;20.70;98.30;;;20.70;69.45;100715.69;5071285;28;20667;-76
2023/06/26 02:26:35;;;;;;;10.03;7.10;;;20.70;98.20;;;20.64;69.70;100711.16;5072689;28;20277;-76
2023/06/26 02:29:08;;;;;;;8.27;7.47;;;20.70;98.00;;;20.60;69.74;100720.84;5072658;28;20236;-76
2023/06/26 02:31:40;;;;;;;9.97;7.53;;;20.60;98.40;;;20.63;69.66;100723.09;5072162;28;20216;-77
2023/06/26 02:34:12;;;;;;;7.70;7.00;;;20.60;98.10;;;20.64;69.79;100719.34;5072427;28;20297;-76
2023/06/26 02:36:44;;;;;;;8.13;7.33;;;20.60;98.30;;;20.62;69.56;100716.00;5072581;28;20194;-76
2023/06/26 02:39:16;;;;;;;7.73;6.93;;;20.60;98.20;;;20.56;69.84;100713.34;5076871;28;20187;-76
2023/06/26 02:41:48;;;;;;;9.10;7.23;;;20.60;98.20;;;20.50;70.18;100712.38;5076483;28;20221;-76
2023/06/26 02:44:21;;;;;;;10.13;7.70;;;20.50;98.50;;;20.45;70.46;100708.66;5074084;28;20230;-77
2023/06/26 02:46:53;;;;;;;7.90;7.10;;;20.50;98.50;;;20.42;70.39;100699.06;5071911;28;20214;-77
2023/06/26 02:49:25;;;;;;;9.77;7.60;;;20.40;98.80;;;20.38;70.79;100711.44;5068348;28;20206;-77
2023/06/26 02:51:57;;;;;;;9.07;7.40;;;20.40;98.70;;;20.33;70.92;100705.84;5065671;28;20646;-77
2023/06/26 02:54:29;;;;;;;10.00;7.70;;;20.40;98.60;;;20.36;70.69;100705.41;5065182;28;20308;-76
2023/06/26 02:57:01;;;;;;;7.93;6.60;;;20.40;98.80;;;20.29;70.73;100698.38;5064922;28;20227;-76
2023/06/26 02:59:34;;;;;;;9.73;7.43;;;20.30;98.80;;;20.25;70.77;100693.34;5064520;28;20594;-76
2023/06/26 03:02:06;;;;;;;8.00;7.00;;;20.30;99.00;;;20.25;70.90;100697.94;5064980;28;20194;-77
2023/06/26 03:04:38;;;;;;;8.00;7.30;;;20.30;98.80;;;20.23;70.56;100689.19;5064607;28;20261;-75
2023/06/26 03:07:10;;;;;;;9.03;6.60;;;20.30;98.80;;;20.21;70.72;100683.97;5065113;28;20277;-75
2023/06/26 03:09:42;;;;;;;7.83;7.00;;;20.30;98.70;;;20.20;70.07;100689.66;5064695;28;20210;-76
2023/06/26 03:12:14;;;;;;;8.80;6.60;;;20.30;98.60;;;20.25;70.05;100684.34;5064022;28;20229;-76
2023/06/26 03:14:47;;;;;;;9.03;6.97;;;20.30;98.60;;;20.29;69.98;100684.78;5062058;28;20230;-76
2023/06/26 03:17:19;;;;;;;8.40;6.37;;;20.40;98.40;;;20.29;69.48;100682.06;5064590;28;20214;-76
2023/06/26 03:19:51;;;;;;;7.67;6.80;;;21.30;98.60;;;20.19;69.84;100680.66;5062314;28;20254;-76
2023/06/26 03:22:23;;;;;;;10.53;6.20;;;20.30;98.60;;;20.20;70.05;100679.63;5063917;28;20674;-76
2023/06/26 03:24:55;;;;;;;8.40;6.93;;;20.30;98.60;;;20.19;70.00;100672.50;5062945;28;20260;-76
2023/06/26 03:27:27;;;;;;;8.17;6.50;;;20.30;98.40;;;20.21;69.54;100680.41;5063802;28;20830;-76
2023/06/26 03:30:01;;;;;;;8.30;7.27;;;20.30;98.50;;;20.15;69.80;100675.88;5064892;28;20242;-76
2023/06/26 03:32:33;;;;;;;8.50;6.87;;;20.20;98.50;;;20.15;69.45;100676.72;5064147;28;20198;-76
2023/06/26 03:35:05;;;;;;;10.40;7.30;;;20.20;98.50;;;20.13;70.68;100680.72;5063916;28;20214;-76
2023/06/26 03:37:38;;;;;;;8.30;6.60;;;20.20;98.80;;;20.13;70.80;100667.13;5064076;28;20190;-75
2023/06/26 03:40:13;;;;;;;8.97;6.77;;;20.20;98.90;;;20.12;70.17;100676.34;5062886;28;20205;-77
2023/06/26 03:42:45;;;;;;;9.50;6.60;;;20.20;98.80;;;20.12;70.44;100668.19;5064725;28;20284;-76
2023/06/26 03:45:18;;;;;;;7.27;6.57;;;20.20;99.00;;;20.10;70.42;100668.41;5063609;28;20232;-76
2023/06/26 03:47:51;;;;;;;9.13;6.37;;;20.20;98.90;;;20.10;69.83;100662.16;5064478;28;20209;-76
2023/06/26 03:50:23;;;;;;;7.10;6.33;;;20.20;98.60;;;20.08;69.81;100661.53;5063986;28;20194;-76
2023/06/26 03:52:55;;;;;;;7.03;6.37;;;20.20;98.60;;;20.07;70.41;100662.56;5063955;28;20197;-76
2023/06/26 03:55:26;;;;;;;6.67;6.07;;;20.10;98.70;;;20.09;70.46;100665.91;5064652;28;20224;-76
2023/06/26 03:57:58;;;;;;;7.10;6.37;;;20.40;98.90;;;20.06;69.92;100663.66;5064192;28;20214;-76
2023/06/26 04:00:31;;;;;;;8.03;6.60;;;20.10;98.80;;;20.02;70.19;100665.16;5064147;28;20190;-77
2023/06/26 04:03:04;;;;;;;9.23;6.30;;;20.10;99.10;;;20.04;70.20;100673.91;5063294;28;20226;-76
2023/06/26 04:05:36;;;;;;;7.57;6.40;;;20.10;98.60;;;20.06;70.00;100660.94;5063711;28;20240;-76
2023/06/26 04:08:09;;;;;;;7.43;6.10;;;20.10;98.50;;;20.07;69.87;100665.28;5063970;28;20217;-77
2023/06/26 04:10:40;;;;;;;12.50;6.27;;;20.20;98.40;;;20.05;70.02;100664.69;5063908;28;20202;-76
2023/06/26 04:13:13;;;;;;;7.17;6.40;;;20.10;98.40;;;20.06;69.74;100666.38;5063996;28;20597;-77
2023/06/26 04:15:47;;;;;;;8.23;6.00;;;20.20;98.30;;;20.07;70.16;100665.28;5064301;28;20631;-77
2023/06/26 04:18:20;;;;;;;10.07;6.20;;;20.20;99.10;;;20.06;70.53;100660.94;5065087;28;20199;-76
2023/06/26 04:21:11;;;;;;;8.67;6.60;;;20.20;98.70;;;20.05;70.35;100659.25;5064608;28;20197;-76
2023/06/26 04:23:43;;;;;;;9.13;6.43;;;20.20;98.80;;;20.06;69.55;100655.50;5064664;28;20252;-76
2023/06/26 04:26:15;;;;;;;8.93;6.53;;;20.20;98.50;;;20.07;70.20;100651.69;5065251;28;20229;-76
2023/06/26 04:28:48;;;;;;;11.97;6.37;;;20.20;98.60;;;20.09;69.87;100655.03;5064833;28;20246;-76
2023/06/26 04:31:21;;;;;;;11.43;6.47;;;20.20;98.50;;;20.10;69.44;100652.09;5065161;28;20213;-77
2023/06/26 04:33:54;;;;;;;6.67;6.00;;;20.30;98.20;;;20.08;69.67;100653.38;5065492;28;20233;-77
2023/06/26 04:36:28;;;;;;;8.23;6.20;;;20.30;98.20;;;20.11;69.06;100647.47;5065057;28;20217;-77
2023/06/26 04:39:00;;;;;;;10.57;6.10;;;20.30;98.20;;;20.13;69.84;100634.53;5066033;28;20209;-77
2023/06/26 04:41:32;;;;;;;8.37;6.27;;;20.30;98.20;;;20.14;70.09;100633.44;5067072;28;20198;-77
2023/06/26 04:44:04;;;;;;;6.80;5.67;;;20.30;98.30;;;20.15;69.79;100637.81;5066847;28;20221;-76
2023/06/26 04:46:40;;;;;;;9.20;6.10;;;20.30;98.20;;;20.16;70.01;100632.19;5067333;28;20214;-77
2023/06/26 04:49:13;;;;;;;8.87;5.90;;;20.40;98.30;;;20.19;69.31;100633.59;5067327;28;20591;-76
2023/06/26 04:51:45;;;;;;;7.70;5.83;;;20.40;98.20;;;20.19;69.83;100636.34;5067465;28;20191;-76
2023/06/26 04:54:17;;;;;;;9.47;6.07;;;20.40;98.20;;;20.21;69.87;100640.47;5067021;28;20262;-76
2023/06/26 04:56:49;;;;;;;8.03;5.83;;;20.40;98.30;;;20.21;69.70;100634.19;5067629;28;20221;-76
2023/06/26 04:59:21;;;;;;;7.57;5.90;;;20.40;98.20;;;20.23;69.68;100629.38;5065920;28;20198;-76
2023/06/26 05:01:54;;;;;;;7.67;5.80;;;20.40;98.30;;;20.25;69.64;100627.25;5066176;28;20194;-77
2023/06/26 05:04:26;;;;;;;9.03;6.10;;;20.50;98.20;;;20.28;69.49;100620.56;5068636;28;20229;-77
2023/06/26 05:06:58;;;;;;;8.00;5.97;;;20.50;98.10;;;20.31;69.98;100628.31;5070134;28;20194;-77
2023/06/26 05:09:30;;;;;;;7.60;6.20;;;20.60;98.30;;;20.34;70.32;100619.69;5070482;28;20206;-77
2023/06/26 05:12:03;;;;;;;9.40;5.87;;;20.60;98.30;;;20.36;70.09;100612.97;5071635;28;20585;-77
2023/06/26 05:14:34;;;;;;;7.03;5.57;;;20.60;98.30;;;20.38;69.79;100615.44;5071523;28;20226;-76
2023/06/26 05:17:08;;;;;;;8.73;6.50;;;20.60;98.30;;;20.39;69.95;100604.34;5072026;28;20194;-76
2023/06/26 05:19:40;;;;;;;7.63;5.73;;;20.60;98.30;;;20.41;69.30;100610.38;5073074;28;20210;-76
2023/06/26 05:22:13;;;;;;;11.13;5.53;;;20.70;98.10;;;20.43;69.60;100608.28;5072223;28;20222;-76
2023/06/26 05:24:48;;;;;;;7.70;6.20;;;20.70;98.20;;;20.46;70.20;100606.97;5073724;28;20230;-77
2023/06/26 05:27:22;;;;;;;7.33;5.90;;;20.70;98.20;;;20.48;70.79;100602.16;5073631;28;20213;-77
2023/06/26 05:29:55;;;;;;;6.33;5.70;;;20.60;98.70;;;20.50;70.13;100602.75;5076545;28;20244;-76
2023/06/26 05:32:31;;;;;;;6.67;5.50;;;20.80;98.40;;;20.55;70.26;100603.72;5078741;28;20195;-76
2023/06/26 05:35:05;;;;;;;8.37;5.90;;;20.80;98.40;;;20.57;71.00;100598.88;5078557;28;20225;-76
2023/06/26 05:37:39;;;;;;;7.43;5.87;;;20.90;98.70;;;20.59;70.92;100594.03;5078766;28;20190;-76
2023/06/26 05:40:12;;;;;;;6.10;5.50;;;20.90;98.90;;;20.63;71.19;100587.09;5078697;28;20185;-76
2023/06/26 05:42:45;;;;;;;7.73;6.30;;;20.90;98.80;;;20.68;70.98;100586.41;5077175;28;20174;-76
2023/06/26 05:45:16;;;;;;;6.33;5.73;;;21.00;98.80;;;20.70;71.62;100587.84;5063553;28;20186;-76
2023/06/26 05:47:50;;;;;;;9.80;5.83;;;21.00;99.10;;;20.78;71.39;100592.13;5063717;28;20194;-76
2023/06/26 05:50:22;;;;;;;8.33;6.37;;;21.10;99.00;;;20.83;71.82;100585.97;5062998;28;20241;-76
2023/06/26 05:52:55;;;;;;;8.00;6.17;;;21.10;99.00;;;20.86;71.21;100585.50;5060559;28;20311;-76
2023/06/26 05:55:29;;;;;;;8.67;6.60;;;21.20;98.90;;;20.88;71.69;100584.25;5063229;28;20656;-76
2023/06/26 05:58:05;;;;;;;8.10;6.33;;;21.20;98.80;;;20.97;71.37;100584.72;5059192;28;20222;-76
2023/06/26 06:00:38;;;;;;;7.73;6.10;;;21.30;98.80;;;20.99;72.10;100579.91;5064560;28;20249;-77
2023/06/26 06:03:12;;;;;;;7.03;5.90;;;21.30;99.20;;;21.03;73.46;100581.91;5070758;28;20230;-76
2023/06/26 06:05:44;;;;;;;7.03;5.90;;;21.40;99.90;;;21.07;71.87;100582.25;5065715;28;20190;-77
2023/06/26 06:08:16;;;;;;;8.73;5.97;;;21.40;99.30;;;21.13;71.21;100581.38;5058849;28;20198;-78
2023/06/26 06:10:48;;;;;;;6.67;6.07;;;21.50;99.00;;;21.29;69.55;100586.16;5061952;28;20221;-77
2023/06/26 06:13:20;;;;;;;6.60;5.83;;;21.60;98.20;;;21.33;69.92;100587.34;5063725;28;20233;-77
2023/06/26 06:15:53;;;;;;;6.23;5.67;;;21.70;98.30;;;21.35;70.82;100582.50;5065390;28;20195;-77
2023/06/26 06:18:26;;;;;;;6.23;5.70;;;21.70;98.50;;;21.38;71.21;100579.28;5053315;28;20218;-77
2023/06/26 06:20:58;;;;;;;6.70;6.00;;;21.80;98.90;;;21.45;70.30;100579.19;5053572;28;20233;-77
2023/06/26 06:23:30;;;;;;;6.53;5.87;;;21.80;98.30;;;21.50;70.96;100574.69;5054072;28;20233;-77
2023/06/26 06:26:02;;;;;;;9.53;6.10;;;22.00;98.60;;;21.57;71.32;100583.59;5053521;28;20264;-77
2023/06/26 06:28:34;;;;;;;6.93;5.90;;;22.00;98.70;;;21.75;68.52;100577.19;5051773;28;20256;-76
2023/06/26 06:31:06;;;;;;;6.47;5.87;;;22.10;97.50;;;21.74;70.12;100579.09;5051777;28;20214;-76
2023/06/26 06:33:39;;;;;;;6.70;6.10;;;22.10;98.10;;;21.81;70.07;100572.69;5052264;28;20261;-76
2023/06/26 06:36:10;;;;;;;6.83;6.23;;;22.20;98.10;;;21.88;71.29;100571.50;5053830;28;20248;-76
2023/06/26 06:38:46;;;;;;;6.47;5.87;;;21.60;98.30;;;22.00;69.61;100571.50;5053314;28;20191;-77
2023/06/26 06:41:18;;;;;;;6.90;6.23;;;22.40;97.80;;;22.00;70.12;100566.88;5057013;28;20221;-78
2023/06/26 06:43:49;;;;;;;8.23;6.27;;;22.40;98.10;;;22.12;67.00;100564.97;5057920;28;20272;-78
2023/06/26 06:46:21;;;;;;;7.23;6.50;;;22.60;96.60;;;22.19;67.58;100567.59;5054895;28;20264;-78
2023/06/26 06:48:55;;;;;;;6.37;5.77;;;22.70;96.80;;;22.31;65.13;100568.38;5055280;28;20229;-77
2023/06/26 06:51:28;;;;;;;7.40;6.27;;;22.80;95.60;;;22.43;65.51;100577.34;5054979;28;20270;-77
2023/06/26 06:53:59;;;;;;;6.13;5.30;;;22.80;96.00;;;22.65;62.73;100575.63;5055136;28;20273;-77
2023/06/26 06:56:31;;;;;;;6.63;6.00;;;23.10;94.50;;;22.91;61.25;100573.41;5059495;28;20564;-78
2023/06/26 06:59:04;;;;;;;8.23;6.10;;;23.20;93.60;;;23.25;58.44;100572.38;5058758;28;20687;-77
2023/06/26 07:01:36;;;;;;;6.40;5.80;;;23.60;92.10;;;23.26;57.68;100571.28;5058485;28;20632;-77
2023/06/26 07:04:09;;;;;;;6.87;6.17;;;23.60;91.40;;;23.28;57.32;100579.25;5058502;28;20226;-78
2023/06/26 07:06:41;;;;;;;6.77;6.00;;;23.60;91.10;;;23.38;57.25;100569.31;5059374;28;20190;-77
2023/06/26 07:09:14;;;;;;;7.80;6.07;;;23.80;91.00;;;23.41;57.98;100568.84;5060107;28;20195;-78
2023/06/26 07:11:46;;;;;;;6.80;6.13;;;23.90;91.30;;;23.73;55.66;100572.63;5059492;28;20284;-77
2023/06/26 07:14:18;;;;;;;6.10;5.50;;;24.10;90.30;;;23.70;55.65;100575.84;5058674;28;20230;-77
2023/06/26 07:16:50;;;;;;;6.33;5.70;;;24.10;90.50;;;23.86;56.52;100573.38;5058343;28;20683;-77
2023/06/26 07:19:23;;;;;;;7.83;5.83;;;24.30;90.40;;;23.84;55.89;100576.34;5065220;28;20195;-77
2023/06/26 07:21:55;;;;;;;10.10;6.23;;;24.20;90.10;;;24.01;54.85;100576.31;5071741;28;20221;-78
2023/06/26 07:24:27;;;;;;;6.40;5.70;;;24.40;89.10;;;23.95;55.63;100569.13;5072099;28;20233;-77
2023/06/26 07:27:00;;;;;;;8.40;6.17;;;24.30;89.40;;;24.04;55.84;100568.41;5072464;28;20194;-77
2023/06/26 07:29:32;;;;;;;7.00;6.30;;;24.40;90.20;;;24.14;55.17;100570.53;5073057;28;20225;-77
2023/06/26 07:32:04;;;;;;;8.30;6.40;;;24.40;89.30;;;24.11;55.81;100573.75;5072425;28;20210;-77
2023/06/26 07:34:38;;;;;;;6.83;6.20;;;24.40;90.10;;;24.24;53.79;100578.84;5071246;28;20230;-77
2023/06/26 07:37:10;;;;;;;7.50;6.50;;;24.50;87.50;;;24.31;54.45;100576.78;5073361;28;20191;-77
2023/06/26 07:39:42;;;;;;;8.80;6.50;;;24.60;87.80;;;24.33;54.71;100571.84;5065371;28;20653;-66
2023/06/26 07:42:15;;;;;;;8.43;6.60;;;24.70;87.80;;;24.46;54.11;100576.94;5064486;28;20278;-77
2023/06/26 07:44:46;;;;;;;7.07;6.47;;;24.80;88.10;;;24.44;53.26;100573.63;5065900;28;20233;-77
2023/06/26 07:47:18;;;;;;;6.80;6.10;;;24.80;86.80;;;24.62;53.18;100565.06;5066471;28;20203;-77
2023/06/26 07:49:51;;;;;;;6.30;5.70;;;24.90;85.70;;;24.67;53.32;100576.09;5065641;28;20217;-76
2023/06/26 07:52:23;;;;;;;7.03;6.33;;;25.00;86.00;;;24.70;52.42;100572.84;5066697;28;20259;-76
2023/06/26 07:54:55;;;;;;;6.80;6.10;;;25.00;84.80;;;24.78;52.56;100570.72;5066345;28;20249;-76
2023/06/26 07:57:28;;;;;;;7.10;6.40;;;25.10;84.80;;;24.81;52.39;100570.22;5066149;28;20191;-76
2023/06/26 08:00:00;;;;;;;7.70;6.60;;;25.10;84.40;;;24.96;52.46;100571.25;5068353;28;20190;-76
2023/06/26 08:02:31;;;;;;;9.17;6.27;;;25.20;84.50;;;24.96;52.93;100575.88;5066553;28;20637;-76
2023/06/26 08:05:05;;;;;;;8.13;6.50;;;25.40;85.30;;;25.00;52.76;100572.34;5066564;28;20230;-76
2023/06/26 08:07:37;;;;;;;7.50;6.77;;;25.30;84.90;;;24.97;53.68;100580.25;5069176;28;20198;-77
2023/06/26 08:10:10;;;;;;;7.30;6.60;;;25.30;85.60;;;25.03;53.72;100571.03;5068292;28;20205;-77
2023/06/26 08:12:44;;;;;;;7.03;6.37;;;25.30;85.80;;;25.04;55.57;100572.66;5068314;28;20194;-77
2023/06/26 08:15:17;;;;;;;10.67;6.53;;;25.40;87.70;;;25.29;52.94;100569.34;5069721;28;20190;-77
2023/06/26 08:17:50;;;;;;;7.18;6.53;;;25.60;85.20;;;25.26;53.25;100569.88;5069276;28;20190;-77
2023/06/26 08:20:24;;;;;;;7.35;5.85;;;25.60;85.00;;;25.32;51.66;100575.13;5067934;28;20198;-76
2023/06/26 08:22:56;;;;;;;7.13;6.40;;;25.60;83.40;;;25.43;51.91;100565.91;5067967;28;20194;-75
2023/06/26 08:25:28;;;;;;;7.13;6.43;;;25.70;83.20;;;25.46;50.52;100564.53;5067019;28;20202;-75
2023/06/26 08:28:00;;;;;;;147.13;18.98;;;25.70;82.40;;;25.66;48.83;100571.03;5065688;28;20646;-75
2023/06/26 08:30:33;;;;;;;7.10;6.20;;;25.90;80.00;;;25.69;49.43;100576.00;5064404;28;20198;-76
2023/06/26 08:33:05;;;;;;;9.05;6.93;;;25.90;80.00;;;25.69;49.84;100572.41;5066078;28;20222;-77
2023/06/26 08:35:38;;;;;;;8.90;6.00;;;25.90;80.30;;;25.70;50.23;100576.81;5060344;28;20194;-76
2023/06/26 08:38:10;;;;;;;8.10;6.35;;;26.00;80.60;;;25.94;49.24;100563.53;5063651;28;20248;-76
2023/06/26 08:40:42;;;;;;;6.75;6.15;;;26.20;79.70;;;26.03;48.66;100571.00;5063203;28;20191;-75
2023/06/26 08:43:15;;;;;;;7.13;6.53;;;26.30;79.00;;;26.04;48.89;100567.16;5063807;28;20226;-76
2023/06/26 08:45:51;;;;;;;8.85;6.88;;;26.40;79.00;;;26.03;48.99;100562.75;5062674;28;20555;-76
2023/06/26 08:48:24;;;;;;;11.05;7.22;;;26.30;79.30;;;26.17;48.21;100560.38;5063706;28;20277;-76
2023/06/26 08:51:02;;;;;;;17.50;7.53;;;26.40;78.70;;;26.26;48.71;100553.31;5063843;28;20210;-77
2023/06/26 08:53:44;;;;;;;7.43;6.60;;;26.50;78.60;;;26.39;47.69;100563.78;5063634;28;20230;-77
2023/06/26 08:56:21;;;;;;;14.20;6.53;;;26.60;77.10;;;26.44;48.30;100550.06;5062940;28;20244;-77
2023/06/26 08:58:53;;;;;;;7.53;6.82;;;26.60;77.30;;;26.48;48.37;100562.16;5063753;28;20248;-77
2023/06/26 09:01:26;;;;;;;7.43;6.72;;;26.70;78.40;;;26.45;50.43;100565.47;5063452;28;20209;-77
2023/06/26 09:03:58;;;;;;;8.63;7.07;;;26.80;80.40;;;26.48;49.52;100572.31;5063826;28;20233;-77
2023/06/26 09:06:32;;;;;;;8.45;6.72;;;26.70;79.40;;;26.59;49.92;100580.34;5063562;28;20191;-77
2023/06/26 09:09:04;;;;;;;9.90;6.85;;;26.90;79.60;;;26.79;48.39;100578.72;5061979;28;20191;-69
2023/06/26 09:11:38;;;;;;;10.40;9.32;;;27.10;78.00;;;26.84;48.75;100584.28;5053579;28;20244;-66
2023/06/26 09:14:11;;;;;;;8.25;7.07;;;27.10;77.00;;;26.89;48.35;100590.59;5053448;28;20579;-76
2023/06/26 09:16:46;;;;;;;11.20;7.00;;;27.10;77.30;;;26.93;48.91;100591.72;5056359;28;20336;-75
2023/06/26 09:19:18;;;;;;;11.50;8.00;;;27.20;77.90;;;27.11;49.50;100587.63;5053876;28;20196;-73
2023/06/26 09:21:55;;;;;;;8.30;7.35;;;27.30;79.00;;;27.12;48.65;100589.28;5053274;28;20228;-73
2023/06/26 09:24:27;;;;;;;22.85;8.85;;;27.40;78.00;;;27.21;48.98;100588.47;5053382;28;20268;-73
2023/06/26 09:26:59;;;;;;;7.97;7.18;;;27.40;78.10;;;27.31;49.01;100584.06;5053523;28;20244;-73
2023/06/26 09:29:32;;;;;;;10.73;7.95;;;27.60;78.10;;;27.35;48.83;100591.50;5053468;28;20194;-73
2023/06/26 09:32:05;;;;;;;17.45;9.07;;;27.60;78.10;;;27.29;47.57;100584.38;5053390;28;20211;-73
2023/06/26 09:34:37;;;;;;;13.88;10.60;;;27.50;77.90;;;27.29;48.69;100589.03;5052887;28;20265;-73
2023/06/26 09:37:12;;;;;;;16.83;8.88;;;27.50;78.50;;;27.39;48.98;100595.38;5053757;28;20273;-73
2023/06/26 09:39:46;;;;;;;14.68;7.85;;;27.60;77.40;;;27.36;49.99;100601.41;5053303;28;20293;-73
2023/06/26 09:42:19;;;;;;;14.32;8.65;;;27.60;79.50;;;27.45;49.00;100608.03;5053370;28;20612;-72
2023/06/26 09:44:51;;;;;;;18.27;8.63;;;27.60;77.80;;;27.44;49.28;100616.50;5053185;28;20261;-73
2023/06/26 09:47:24;;;;;;;12.07;8.40;;;27.60;78.40;;;27.48;48.15;100636.91;5053532;28;20238;-73
2023/06/26 09:49:58;;;;;;;12.45;8.23;;;27.60;77.00;;;27.40;46.55;100629.19;5053672;28;20644;-72
2023/06/26 09:52:34;;;;;;;18.00;8.05;;;27.60;74.60;;;27.47;47.57;100633.31;5052896;28;20246;-73
2023/06/26 09:55:14;;;;;;;18.20;8.63;;;27.60;76.00;;;27.50;48.12;100630.03;5052948;28;20707;-75
2023/06/26 09:57:47;;;;;;;11.15;8.73;;;27.60;76.40;;;27.44;47.96;100641.25;5053083;28;20240;-76
2023/06/26 10:00:19;;;;;;;10.20;9.07;;;27.50;76.40;;;27.39;48.47;100642.09;5052823;28;20641;-75
2023/06/26 10:02:50;;;;;;;15.10;8.73;;;27.50;76.70;;;27.25;47.05;100642.91;5054799;28;20294;-76
2023/06/26 10:05:22;;;;;;;11.73;8.85;;;27.40;75.20;;;27.14;48.47;100658.53;5053475;28;20191;-76
2023/06/26 10:07:56;;;;;;;12.23;9.88;;;26.90;76.60;;;26.91;49.47;100643.38;5053005;28;20277;-76
2023/06/26 10:10:33;;;;;;;15.38;9.85;;;27.00;78.10;;;26.86;50.07;100645.25;5053286;28;20196;-76
2023/06/26 10:13:15;;;;;;;12.20;10.57;;;26.90;79.00;;;26.75;50.63;100660.06;5052870;28;20232;-76
2023/06/26 10:15:51;;;;;;;13.32;9.68;;;26.80;79.50;;;26.75;50.84;100654.56;5052707;28;20196;-76
2023/06/26 10:18:25;;;;;;;19.33;10.48;;;26.80;79.90;;;26.71;51.75;100662.50;5052763;28;20267;-76
2023/06/26 10:21:00;;;;;;;17.00;10.43;;;26.70;81.10;;;26.71;51.40;100657.81;5052975;28;20193;-76
2023/06/26 10:23:39;;;;;;;14.43;10.75;;;26.70;80.90;;;26.66;51.16;100656.97;5052849;28;20622;-76
2023/06/26 10:26:12;;;;;;;13.32;9.65;;;26.70;81.00;;;26.56;51.76;100662.44;5052923;28;20620;-76
2023/06/26 10:28:51;;;;;;;20.73;9.85;;;26.60;81.40;;;26.59;52.15;100668.22;5054249;28;20226;-76
2023/06/26 10:31:26;;;;;;;11.32;8.07;;;26.60;81.80;;;26.72;52.32;100670.47;5056783;28;20197;-77
2023/06/26 10:33:58;;;;;;;17.13;10.65;;;26.70;82.40;;;26.63;53.47;100683.06;5056451;28;20244;-76